Time;durP1;ratioP1;P1;durP2;ratioP2;P2;SDS_P1;SDS_P2;PMS_P1;PMS_P2;Temp;Humidity;BMP_temperature;BMP_pressure;BME280_temperature;BME280_humidity;BME280_pressure;Samples;Min_cycle;Max_cycle;Signal;HPM_P1;HPM_P2
2023/10/05 00:01:44;;;;;;;5.93;2.93;;;;;;;9.93;70.16;99792.75;5091799;28;42614;-79
2023/10/05 00:04:15;;;;;;;3.40;2.17;;;;;;;9.79;70.06;99789.84;5109008;28;41567;-77
2023/10/05 00:06:44;;;;;;;4.87;2.60;;;;;;;9.85;69.88;99816.03;5092282;28;40787;-79
2023/10/05 00:09:16;;;;;;;3.67;2.40;;;;;;;9.80;69.80;99809.22;5091323;28;43465;-79
2023/10/05 00:11:44;;;;;;;4.23;2.37;;;;;;;9.77;69.89;99817.31;5089045;28;43183;-80
2023/10/05 00:14:12;;;;;;;4.47;3.00;;;;;;;9.56;69.50;99782.94;5092312;28;38798;-79
2023/10/05 00:16:47;;;;;;;4.00;2.43;;;;;;;9.68;69.95;99819.41;5092210;28;42686;-80
2023/10/05 00:19:17;;;;;;;4.43;2.20;;;;;;;9.54;70.04;99803.28;5092759;28;42793;-80
2023/10/05 00:21:50;;;;;;;4.97;3.07;;;;;;;9.61;69.88;99825.91;5075045;28;42437;-79
2023/10/05 00:24:27;;;;;;;3.33;2.17;;;;;;;9.54;70.27;99816.50;5123285;27;40098;-80
2023/10/05 00:26:56;;;;;;;4.73;2.20;;;;;;;9.55;70.17;99828.81;5091042;28;41719;-79
2023/10/05 00:29:27;;;;;;;4.00;2.53;;;;;;;9.55;70.45;99828.81;5074793;28;42795;-80
2023/10/05 00:31:58;;;;;;;4.27;2.77;;;;;;;9.55;70.32;99828.81;5091587;28;42393;-80
2023/10/05 00:34:27;;;;;;;5.30;2.23;;;;;;;9.40;70.58;99808.28;5108616;28;39955;-80
2023/10/05 00:36:59;;;;;;;4.97;2.30;;;;;;;9.54;71.12;99816.50;5073912;28;40675;-80
2023/10/05 00:39:31;;;;;;;4.10;2.40;;;;;;;9.55;71.80;99815.56;5107090;28;42678;-80
2023/10/05 00:42:02;;;;;;;5.10;2.73;;;;;;;9.55;71.39;99815.56;5107520;28;42631;-80
2023/10/05 00:44:30;;;;;;;4.03;2.20;;;;;;;9.56;71.17;99819.94;5108077;28;39023;-80
2023/10/05 00:47:00;;;;;;;3.67;2.37;;;;;;;9.57;71.11;99821.66;5108013;28;43246;-80
2023/10/05 00:49:29;;;;;;;4.07;2.17;;;;;;;9.45;71.00;99794.88;5073859;28;41995;-80
2023/10/05 00:52:02;;;;;;;3.50;2.50;;;;;;;9.51;71.27;99810.50;5090646;28;42455;-80
2023/10/05 00:54:33;;;;;;;4.83;2.80;;;;;;;9.62;71.23;99819.69;5087741;28;40034;-80
2023/10/05 00:57:03;;;;;;;4.13;2.20;;;;;;;9.56;71.14;99803.22;5073842;28;40561;-80
2023/10/05 00:59:31;;;;;;;3.07;2.10;;;;;;;9.64;70.82;99812.53;5074001;28;41492;-80
2023/10/05 01:02:14;;;;;;;4.40;2.43;;;;;;;9.64;71.04;99807.25;5090596;28;40945;-80
2023/10/05 01:04:56;;;;;;;6.30;2.10;;;;;;;9.52;70.92;99769.91;5090776;28;39289;-80
2023/10/05 01:07:43;;;;;;;2.97;2.27;;;;;;;9.67;71.13;99791.25;5090671;28;40629;-79
2023/10/05 01:10:29;;;;;;;3.97;1.90;;;;;;;9.68;71.12;99794.75;5073400;28;42744;-80
2023/10/05 01:12:58;;;;;;;3.67;2.13;;;;;;;9.67;70.84;99785.94;5091408;28;43036;-79
2023/10/05 01:15:31;;;;;;;2.27;2.00;;;;;;;9.67;71.01;99778.03;5091867;28;40325;-79
2023/10/05 01:17:59;;;;;;;3.60;2.40;;;;;;;9.70;70.67;99782.31;5074907;28;41666;-79
2023/10/05 01:20:29;;;;;;;4.10;2.33;;;;;;;9.69;70.61;99781.47;5108538;28;41613;-80
2023/10/05 01:23:01;;;;;;;3.30;2.43;;;;;;;9.69;70.75;99776.16;5074273;28;42251;-79
2023/10/05 01:25:30;;;;;;;3.43;2.00;;;;;;;9.65;70.62;99779.88;5090543;28;39997;-79
2023/10/05 01:27:57;;;;;;;2.67;1.70;;;;;;;9.67;71.03;99783.31;5077729;28;40565;-79
2023/10/05 01:30:25;;;;;;;4.10;2.37;;;;;;;9.64;71.46;99779.97;5077992;28;42115;-79
2023/10/05 01:32:54;;;;;;;5.17;2.27;;;;;;;9.62;71.14;99777.38;5111512;28;41982;-79
2023/10/05 01:35:23;;;;;;;4.97;2.60;;;;;;;9.62;71.12;99777.38;5111654;28;38717;-79
2023/10/05 01:37:53;;;;;;;5.80;2.37;;;;;;;9.62;71.10;99769.44;5094415;28;41718;-79
2023/10/05 01:40:30;;;;;;;4.03;2.30;;;;;;;9.61;71.17;99770.38;5111597;28;41535;-79
2023/10/05 01:42:59;;;;;;;3.37;2.43;;;;;;;9.35;71.36;99725.69;5091524;28;43134;-79
2023/10/05 01:45:29;;;;;;;4.30;2.40;;;;;;;9.60;71.20;99765.16;5093418;28;41085;-80
2023/10/05 01:48:01;;;;;;;4.50;2.27;;;;;;;9.64;71.31;99777.31;5110500;28;41700;-79
2023/10/05 01:50:28;;;;;;;4.43;2.10;;;;;;;9.65;70.97;99776.34;5110497;28;42038;-80
2023/10/05 01:53:06;;;;;;;5.33;2.57;;;;;;;9.60;71.45;99760.72;5076160;28;41119;-80
2023/10/05 01:55:37;;;;;;;4.10;1.97;;;;;;;9.66;71.71;99764.84;5076995;28;38904;-79
2023/10/05 01:58:06;;;;;;;4.33;2.27;;;;;;;9.65;72.03;99769.28;5127398;27;42658;-80
2023/10/05 02:00:37;;;;;;;3.73;2.17;;;;;;;9.66;71.70;99768.38;5076518;28;41476;-79
2023/10/05 02:03:07;;;;;;;3.00;2.20;;;;;;;9.65;71.78;99768.44;5076503;28;42477;-79
2023/10/05 02:05:36;;;;;;;3.23;1.87;;;;;;;9.59;71.65;99756.34;5127652;27;40140;-80
2023/10/05 02:08:04;;;;;;;3.93;2.50;;;;;;;9.63;72.04;99752.66;5093200;28;40640;-79
2023/10/05 02:10:34;;;;;;;3.40;2.10;;;;;;;9.67;71.97;99754.22;5076183;28;42246;-80
2023/10/05 02:13:04;;;;;;;3.37;2.20;;;;;;;9.68;72.18;99763.88;5110270;28;42666;-79
2023/10/05 02:15:32;;;;;;;3.60;2.40;;;;;;;9.70;72.40;99772.59;5077510;28;38885;-80
2023/10/05 02:18:13;;;;;;;3.50;2.50;;;;;;;9.73;72.30;99767.19;5111040;28;41736;-79
2023/10/05 02:20:44;;;;;;;3.50;2.40;;;;;;;9.72;72.24;99760.16;5077736;28;42108;-79
2023/10/05 02:23:25;;;;;;;5.67;2.57;;;;;;;9.76;72.47;99766.19;5094741;28;43214;-79
2023/10/05 02:25:57;;;;;;;3.60;2.13;;;;;;;9.77;72.28;99772.34;5077557;28;38878;-79
2023/10/05 02:28:26;;;;;;;3.47;2.00;;;;;;;9.72;72.34;99752.25;5128046;27;41702;-80
2023/10/05 02:30:59;;;;;;;5.27;2.43;;;;;;;9.76;72.17;99763.53;5093667;28;42816;-80
2023/10/05 02:33:28;;;;;;;4.10;2.67;;;;;;;9.75;72.21;99763.63;5110550;28;42249;-79
2023/10/05 02:36:08;;;;;;;2.97;2.13;;;;;;;9.63;72.16;99747.38;5094794;28;39894;-79
2023/10/05 02:38:37;;;;;;;2.97;1.80;;;;;;;9.61;72.21;99743.91;5093928;28;40901;-80
2023/10/05 02:41:08;;;;;;;3.87;2.20;;;;;;;9.68;72.25;99750.66;5076010;28;41878;-81
2023/10/05 02:43:40;;;;;;;2.93;1.93;;;;;;;9.66;71.96;99757.78;5075346;28;41242;-80
2023/10/05 02:46:11;;;;;;;2.77;2.00;;;;;;;9.55;72.23;99744.19;5091003;28;40110;-80
2023/10/05 02:48:41;;;;;;;3.17;1.87;;;;;;;9.65;72.09;99777.22;5075827;28;40938;-81
2023/10/05 02:51:13;;;;;;;3.63;2.17;;;;;;;9.63;72.21;99768.53;5092213;28;42933;-80
2023/10/05 07:25:11;;;;;;;8.20;3.47;;;;;;;11.74;100.00;99786.56;5109338;28;20552;-80
2023/10/05 07:27:40;;;;;;;5.83;3.97;;;;;;;12.64;97.35;99796.75;5108824;28;38911;-79
2023/10/05 07:30:09;;;;;;;5.47;3.47;;;;;;;13.37;91.64;99805.84;5125365;27;42242;-79
2023/10/05 07:32:38;;;;;;;6.00;4.17;;;;;;;13.93;87.76;99800.66;5109325;28;43888;-79
2023/10/05 07:35:06;;;;;;;10.27;4.13;;;;;;;14.20;84.53;99773.28;5108466;28;41428;-79
2023/10/05 07:37:34;;;;;;;7.80;4.13;;;;;;;14.75;81.59;99807.97;5091776;28;39063;-79
2023/10/05 07:40:01;;;;;;;8.70;3.50;;;;;;;14.98;79.07;99812.66;5090989;28;43406;-80
2023/10/05 07:42:30;;;;;;;9.20;4.13;;;;;;;15.14;77.72;99817.84;5106058;28;41735;-80
2023/10/05 07:44:59;;;;;;;8.10;3.93;;;;;;;15.28;76.97;99812.47;5141151;27;42043;-79
2023/10/05 07:47:26;;;;;;;7.17;3.50;;;;;;;15.41;75.54;99810.69;5090110;28;38903;-81
2023/10/05 07:49:54;;;;;;;6.47;3.33;;;;;;;15.55;74.90;99806.25;5106978;28;42045;-80
2023/10/05 07:52:21;;;;;;;7.30;3.53;;;;;;;15.65;74.12;99807.34;5089833;28;42177;-80
2023/10/05 07:54:51;;;;;;;5.47;3.30;;;;;;;15.90;73.38;99818.06;5123840;27;41072;-80
2023/10/05 07:57:19;;;;;;;7.40;4.17;;;;;;;16.11;72.78;99816.56;5123813;27;38890;-79
2023/10/05 07:59:48;;;;;;;7.63;3.53;;;;;;;16.35;72.16;99823.81;5106620;28;41756;-79
2023/10/05 08:02:18;;;;;;;6.13;3.67;;;;;;;16.62;71.25;99820.97;5106689;28;43041;-80
2023/10/05 08:04:46;;;;;;;4.87;3.30;;;;;;;16.94;70.26;99832.06;5106565;28;42082;-80
2023/10/05 08:07:15;;;;;;;5.83;4.00;;;;;;;17.34;69.87;99841.53;5141133;27;40078;-80
2023/10/05 08:09:42;;;;;;;6.07;3.17;;;;;;;17.77;68.53;99849.03;5089440;28;41014;-81
2023/10/05 08:12:11;;;;;;;8.40;3.87;;;;;;;18.11;66.36;99853.50;5106971;28;42840;-80
2023/10/05 08:14:39;;;;;;;6.80;3.17;;;;;;;18.55;62.83;99870.59;5106907;28;41912;-80
2023/10/05 08:17:08;;;;;;;7.90;3.47;;;;;;;19.02;62.15;99867.72;5142410;27;39909;-80
2023/10/05 08:19:35;;;;;;;8.47;3.87;;;;;;;19.64;59.71;99880.50;5090354;28;40720;-80
2023/10/05 08:22:03;;;;;;;9.60;3.30;;;;;;;20.43;58.19;99883.63;5107695;28;42095;-80
2023/10/05 08:24:31;;;;;;;7.27;3.40;;;;;;;21.19;55.02;99865.22;5108042;28;43031;-81
2023/10/05 08:26:58;;;;;;;7.73;3.47;;;;;;;22.06;52.32;99895.81;5107733;28;39787;-80
2023/10/05 08:29:28;;;;;;;6.20;3.57;;;;;;;22.24;51.33;99907.59;5090459;28;40546;-80
2023/10/05 08:31:56;;;;;;;6.07;3.20;;;;;;;22.23;50.85;99921.22;5089871;28;41701;-81
2023/10/05 08:34:32;;;;;;;5.63;3.23;;;;;;;22.18;50.57;99919.81;5087027;28;42510;-81
2023/10/05 08:37:01;;;;;;;5.83;3.17;;;;;;;22.22;50.27;99915.00;5109863;28;40005;-81
2023/10/05 08:39:34;;;;;;;5.97;3.50;;;;;;;22.39;49.88;99927.72;5092534;28;40826;-81
2023/10/05 08:42:05;;;;;;;7.17;3.27;;;;;;;22.60;49.24;99891.59;5090776;28;42726;-81
2023/10/05 08:44:36;;;;;;;7.37;3.13;;;;;;;23.15;47.69;99906.88;5075145;28;42693;-81
2023/10/05 08:47:05;;;;;;;6.10;3.23;;;;;;;23.34;46.74;99907.78;5093035;28;39728;-81
2023/10/05 08:49:34;;;;;;;6.10;3.40;;;;;;;23.54;46.51;99910.22;5092628;28;42229;-81
2023/10/05 08:52:09;;;;;;;7.77;3.30;;;;;;;23.77;46.55;99910.63;5075464;28;43187;-81
2023/10/05 08:54:37;;;;;;;8.10;3.87;;;;;;;24.20;45.40;99906.28;5091902;28;42406;-81
2023/10/05 08:57:09;;;;;;;5.63;2.77;;;;;;;24.58;44.39;99937.56;5075547;28;39092;-82
2023/10/05 08:59:37;;;;;;;6.37;3.27;;;;;;;24.75;43.61;99933.06;5092073;28;40700;-81
2023/10/05 09:02:07;;;;;;;6.30;3.13;;;;;;;24.85;43.53;99914.88;5092153;28;43587;-81
2023/10/05 09:04:44;;;;;;;7.03;3.60;;;;;;;25.04;43.64;99930.91;5074961;28;40934;-81
2023/10/05 09:07:27;;;;;;;6.83;3.60;;;;;;;25.25;42.07;99934.03;5092154;28;39272;-81
2023/10/05 09:09:55;;;;;;;4.53;3.40;;;;;;;25.13;42.00;99932.63;5093029;28;41739;-82
2023/10/05 09:12:34;;;;;;;6.03;3.13;;;;;;;24.95;42.44;99934.59;5092493;28;42937;-81
2023/10/05 09:15:08;;;;;;;6.73;3.07;;;;;;;24.83;43.23;99917.72;5076182;28;41359;-81
2023/10/05 09:17:35;;;;;;;5.93;3.30;;;;;;;24.82;42.19;99934.16;5090163;28;40181;-81
2023/10/05 09:20:23;;;;;;;6.50;2.80;;;;;;;24.67;43.10;99925.75;5094383;28;41669;-80
2023/10/05 09:22:53;;;;;;;5.00;2.83;;;;;;;24.57;43.04;99911.47;5097324;28;42939;-81
2023/10/05 09:25:27;;;;;;;6.70;2.90;;;;;;;24.62;42.87;99931.66;5101294;28;43700;-81
2023/10/05 09:27:56;;;;;;;6.53;2.50;;;;;;;24.52;42.88;99922.78;5110480;28;40407;-82
2023/10/05 09:30:29;;;;;;;4.27;2.13;;;;;;;24.60;42.10;99930.94;5076218;28;41082;-82
2023/10/05 09:33:08;;;;;;;4.37;2.20;;;;;;;24.89;41.72;99935.19;5090937;28;42867;-81
2023/10/05 09:35:37;;;;;;;2.87;2.00;;;;;;;24.92;41.53;99937.59;5090771;28;42796;-82
2023/10/05 09:38:09;;;;;;;3.47;2.17;;;;;;;24.77;40.44;99944.59;5075737;28;39898;-82
2023/10/05 09:40:36;;;;;;;5.97;1.90;;;;;;;24.76;40.64;99956.44;5090393;28;41649;-81
2023/10/05 09:43:06;;;;;;;6.50;2.60;;;;;;;24.79;40.76;99945.31;5074334;28;43116;-82
2023/10/05 09:45:35;;;;;;;4.90;2.20;;;;;;;25.23;40.61;99921.66;5091480;28;42363;-82
2023/10/05 09:48:04;;;;;;;3.70;2.57;;;;;;;25.70;39.62;99941.00;5089906;28;41182;-82
2023/10/05 09:50:33;;;;;;;6.17;2.53;;;;;;;25.77;39.68;99947.47;5074427;28;40663;-82
2023/10/05 09:53:06;;;;;;;4.80;2.60;;;;;;;25.96;39.75;99949.88;5090600;28;41974;-81
2023/10/05 09:55:36;;;;;;;4.43;2.43;;;;;;;26.17;39.53;99948.53;5074391;28;41959;-82
2023/10/05 09:58:12;;;;;;;5.10;2.63;;;;;;;26.49;38.63;99953.97;5090880;28;40221;-82
2023/10/05 10:00:55;;;;;;;6.27;3.07;;;;;;;26.58;38.73;99961.09;5122285;27;41574;-82
2023/10/05 10:03:23;;;;;;;6.03;2.50;;;;;;;27.10;37.87;99952.53;5088717;28;43101;-81
2023/10/05 10:05:55;;;;;;;5.27;2.73;;;;;;;27.59;36.90;99949.63;5092071;28;43320;-81
2023/10/05 10:08:27;;;;;;;5.80;2.37;;;;;;;27.98;35.52;99965.88;5090069;28;41358;-82
2023/10/05 10:11:06;;;;;;;3.90;2.03;;;;;;;28.12;35.20;99954.22;5073927;28;41035;-82
2023/10/05 10:13:37;;;;;;;5.97;2.10;;;;;;;28.41;34.07;99969.84;5089634;28;43781;-82
2023/10/05 10:16:17;;;;;;;3.77;1.87;;;;;;;28.20;33.71;99963.19;5075166;28;42489;-83
2023/10/05 10:18:45;;;;;;;4.73;2.27;;;;;;;28.23;34.92;99953.81;5108797;28;39899;-82
2023/10/05 10:21:24;;;;;;;5.47;2.70;;;;;;;28.10;34.59;99957.09;5075167;28;43406;-81
2023/10/05 10:24:03;;;;;;;3.53;2.00;;;;;;;28.00;35.15;99940.16;5087617;28;43506;-81
2023/10/05 10:26:31;;;;;;;3.03;2.03;;;;;;;28.03;34.71;99953.44;5090683;28;41129;-82
2023/10/05 10:28:59;;;;;;;3.90;1.83;;;;;;;28.02;34.22;99959.91;5091599;28;40122;-82
2023/10/05 10:31:30;;;;;;;3.70;2.07;;;;;;;27.92;34.23;99963.91;5091924;28;41710;-82
2023/10/05 10:34:11;;;;;;;3.97;1.97;;;;;;;27.52;34.62;99961.19;5090221;28;43434;-81
2023/10/05 10:36:53;;;;;;;3.37;2.13;;;;;;;27.16;34.72;99973.59;5107835;28;41697;-82
2023/10/05 10:39:27;;;;;;;4.47;2.23;;;;;;;27.25;35.11;99960.81;5090539;28;39485;-82
2023/10/05 10:42:01;;;;;;;5.33;2.30;;;;;;;27.31;34.46;99976.44;5073340;28;42631;-82
2023/10/05 10:44:28;;;;;;;3.57;1.97;;;;;;;27.46;34.83;99985.53;5089389;28;43258;-82
2023/10/05 10:47:11;;;;;;;5.43;2.10;;;;;;;27.27;35.07;99965.06;5090594;28;42846;-82
2023/10/05 10:49:40;;;;;;;4.40;2.37;;;;;;;27.18;34.98;99988.72;5106864;28;39077;-81
2023/10/05 10:52:10;;;;;;;4.33;2.33;;;;;;;26.86;35.50;99977.88;5090437;28;41982;-82
2023/10/05 10:54:45;;;;;;;5.13;1.90;;;;;;;26.61;35.63;99978.94;5091174;28;43510;-82
2023/10/05 10:57:20;;;;;;;4.33;2.00;;;;;;;26.33;36.08;99982.03;5107265;28;41295;-81
2023/10/05 10:59:56;;;;;;;3.33;1.83;;;;;;;25.96;36.59;99962.59;5106225;28;40290;-81
2023/10/05 11:02:23;;;;;;;4.00;2.10;;;;;;;25.75;37.06;99966.63;5090294;28;40316;-81
2023/10/05 11:04:50;;;;;;;3.97;1.93;;;;;;;25.55;37.36;99967.03;5089920;28;43388;-82
2023/10/05 11:07:22;;;;;;;2.50;2.07;;;;;;;25.36;37.95;99966.28;5107013;28;41185;-81
2023/10/05 11:09:52;;;;;;;2.57;1.53;;;;;;;25.18;38.10;99952.00;5090746;28;40173;-81
2023/10/05 11:12:21;;;;;;;5.10;1.97;;;;;;;25.11;38.12;99955.50;5090203;28;40666;-81
2023/10/05 11:15:08;;;;;;;3.90;2.00;;;;;;;24.88;38.09;99949.75;5073824;28;42033;-82
2023/10/05 11:17:36;;;;;;;3.00;1.60;;;;;;;24.57;38.54;99941.28;5088071;28;41935;-82
2023/10/05 11:22:54;;;;;;;3.13;1.97;;;;;;;24.17;39.94;99933.66;5089488;28;41925;-82
2023/10/05 11:25:31;;;;;;;4.97;2.40;;;;;;;24.16;40.08;99945.47;5090757;28;42943;-80
2023/10/05 11:28:00;;;;;;;3.73;1.70;;;;;;;23.98;40.01;99950.91;5107645;28;41898;-81
2023/10/05 11:30:41;;;;;;;3.20;1.80;;;;;;;23.75;40.31;99928.84;5090931;28;40608;-82
2023/10/05 11:33:15;;;;;;;4.67;1.63;;;;;;;23.62;40.21;99941.91;5088225;28;41625;-81
2023/10/05 11:35:48;;;;;;;3.33;1.57;;;;;;;23.49;40.38;99927.91;5087698;28;43470;-81
2023/10/05 11:38:19;;;;;;;3.63;1.80;;;;;;;23.29;40.12;99922.59;5107395;28;41189;-82
2023/10/05 11:40:53;;;;;;;2.10;1.20;;;;;;;23.27;40.51;99934.53;5121856;27;40258;-82
2023/10/05 11:43:21;;;;;;;3.27;1.77;;;;;;;23.14;40.74;99939.44;5087546;28;41817;-81
2023/10/05 11:45:56;;;;;;;3.03;1.60;;;;;;;22.92;41.10;99929.88;5072561;28;41783;-82
2023/10/05 11:48:34;;;;;;;6.70;2.20;;;;;;;22.83;41.59;99923.53;5072654;28;41614;-81
2023/10/05 11:51:09;;;;;;;3.40;1.80;;;;;;;22.75;41.80;99917.97;5106371;28;39343;-81
2023/10/05 11:53:38;;;;;;;2.93;1.67;;;;;;;22.69;42.40;99918.56;5121686;27;43037;-81
2023/10/05 11:56:07;;;;;;;2.70;1.63;;;;;;;22.63;42.71;99913.75;5123341;27;43170;-81
2023/10/05 11:58:37;;;;;;;3.20;1.57;;;;;;;22.58;42.36;99919.59;5088844;28;42595;-81
2023/10/05 12:01:05;;;;;;;2.73;2.00;;;;;;;22.50;42.64;99918.63;5089381;28;40780;-81
2023/10/05 12:03:33;;;;;;;2.67;1.73;;;;;;;22.46;42.80;99923.47;5105944;28;41126;-81
2023/10/05 12:06:01;;;;;;;2.50;1.50;;;;;;;22.33;43.16;99906.72;5090477;28;43645;-80
2023/10/05 12:08:29;;;;;;;3.53;1.80;;;;;;;22.35;42.66;99923.63;5071947;28;42671;-81
2023/10/05 12:10:59;;;;;;;4.23;1.57;;;;;;;22.20;42.74;99909.72;5091062;28;40830;-81
2023/10/05 12:13:29;;;;;;;4.43;1.70;;;;;;;22.23;42.65;99922.09;5093023;28;42094;-80
2023/10/05 12:15:58;;;;;;;3.07;1.87;;;;;;;22.04;42.83;99908.59;5127964;27;43783;-81
2023/10/05 12:18:25;;;;;;;4.90;1.77;;;;;;;22.01;43.27;99922.38;5093186;28;41316;-81
2023/10/05 12:20:53;;;;;;;4.30;1.90;;;;;;;21.81;43.80;99900.78;5110482;28;40436;-81
2023/10/05 12:23:22;;;;;;;3.93;1.70;;;;;;;21.74;44.10;99894.25;5094393;28;41790;-81
2023/10/05 12:25:53;;;;;;;2.97;2.00;;;;;;;21.69;44.13;99901.06;5093111;28;43356;-81
2023/10/05 12:28:23;;;;;;;3.43;1.70;;;;;;;21.65;44.62;99903.16;5093346;28;40947;-81
2023/10/05 12:30:52;;;;;;;3.43;1.87;;;;;;;21.57;45.17;99908.41;5108501;28;40716;-80
2023/10/05 12:33:19;;;;;;;5.03;1.83;;;;;;;21.50;45.36;99904.59;5129933;28;43449;-81
2023/10/05 12:35:52;;;;;;;4.67;1.87;;;;;;;21.40;45.25;99891.06;5095308;28;42928;-79
2023/10/05 12:38:21;;;;;;;3.83;2.30;;;;;;;21.26;45.52;99894.19;5125333;27;42063;-81
2023/10/05 12:40:49;;;;;;;5.57;2.43;;;;;;;21.15;45.97;99896.94;5076191;28;40208;-81
2023/10/05 12:43:16;;;;;;;4.60;2.30;;;;;;;21.05;46.20;99893.38;5074562;28;40443;-82
2023/10/05 12:45:44;;;;;;;4.53;2.03;;;;;;;20.71;46.33;99849.75;5109091;28;43333;-80
2023/10/05 12:48:14;;;;;;;3.53;1.97;;;;;;;20.76;46.08;99887.91;5091829;28;41243;-81
2023/10/05 12:50:42;;;;;;;4.23;2.03;;;;;;;20.58;46.48;99881.44;5093248;28;40054;-81
2023/10/05 12:53:09;;;;;;;5.33;2.50;;;;;;;20.55;46.92;99876.31;5092969;28;41855;-80
2023/10/05 12:55:38;;;;;;;3.00;1.83;;;;;;;20.50;47.13;99874.03;5091856;28;41877;-82
2023/10/05 12:58:08;;;;;;;3.63;1.63;;;;;;;20.47;47.23;99862.69;5091849;28;43023;-81
2023/10/05 13:00:40;;;;;;;3.67;1.47;;;;;;;20.07;47.31;99804.25;5091676;28;39997;-81
2023/10/05 13:03:11;;;;;;;4.17;1.80;;;;;;;20.25;47.82;99848.38;5091566;28;41836;-82
2023/10/05 13:05:43;;;;;;;4.40;2.27;;;;;;;20.31;47.54;99863.97;5071908;28;43509;-80
2023/10/05 13:08:11;;;;;;;4.83;1.97;;;;;;;20.27;48.40;99853.63;5108884;28;42261;-80
2023/10/05 13:10:39;;;;;;;5.73;2.13;;;;;;;20.26;48.07;99860.84;5091901;28;40270;-81
2023/10/05 13:13:16;;;;;;;2.50;1.87;;;;;;;20.28;48.24;99850.78;5093332;28;41813;-80
2023/10/05 13:15:44;;;;;;;3.17;1.77;;;;;;;20.34;48.21;99847.59;5109794;28;41851;-80
2023/10/05 13:18:25;;;;;;;5.70;1.97;;;;;;;20.34;48.09;99842.19;5075696;28;42172;-82
2023/10/05 13:20:55;;;;;;;4.23;1.80;;;;;;;20.42;48.01;99845.09;5075879;28;39274;-82
2023/10/05 13:23:24;;;;;;;2.77;1.73;;;;;;;20.35;47.53;99830.50;5074774;28;42492;-82
2023/10/05 13:25:53;;;;;;;5.63;2.00;;;;;;;20.44;47.57;99845.81;5092936;28;42764;-80
2023/10/05 13:28:24;;;;;;;6.40;2.00;;;;;;;20.44;47.82;99843.13;5092551;28;41604;-80
2023/10/05 13:30:52;;;;;;;5.10;2.40;;;;;;;20.44;47.19;99843.13;5075788;28;38987;-80
2023/10/05 13:33:22;;;;;;;4.27;2.00;;;;;;;20.47;47.24;99846.53;5109429;28;40715;-81
2023/10/05 13:35:51;;;;;;;3.90;1.67;;;;;;;20.51;47.44;99847.97;5090721;28;43739;-81
2023/10/05 13:38:27;;;;;;;2.60;1.53;;;;;;;20.50;47.35;99841.75;5091702;28;42247;-80
2023/10/05 13:40:58;;;;;;;3.33;1.60;;;;;;;20.54;47.52;99847.69;5092090;28;38390;-80
2023/10/05 13:43:29;;;;;;;3.73;1.90;;;;;;;20.57;47.54;99852.81;5073531;28;40889;-81
2023/10/05 13:45:59;;;;;;;4.00;1.67;;;;;;;20.60;47.52;99847.16;5122221;27;43270;-81
2023/10/05 13:48:29;;;;;;;5.33;1.50;;;;;;;20.54;47.40;99836.94;5091998;28;43252;-81
2023/10/05 13:50:57;;;;;;;3.20;1.67;;;;;;;20.59;47.29;99850.84;5088106;28;40135;-82
2023/10/05 13:53:26;;;;;;;4.97;1.73;;;;;;;20.65;47.23;99858.34;5092189;28;42077;-80
2023/10/05 13:55:54;;;;;;;4.93;2.53;;;;;;;20.69;46.86;99857.13;5091110;28;43677;-82
2023/10/05 13:58:22;;;;;;;4.43;1.73;;;;;;;20.76;47.28;99859.16;5091150;28;42613;-82
2023/10/05 14:00:49;;;;;;;3.23;1.73;;;;;;;20.74;47.35;99844.09;5074188;28;39057;-81
2023/10/05 14:03:17;;;;;;;3.50;1.83;;;;;;;20.78;46.78;99858.97;5107653;28;41212;-81
2023/10/05 14:05:50;;;;;;;3.97;1.80;;;;;;;20.66;46.99;99857.38;5090897;28;41824;-82
2023/10/05 14:08:21;;;;;;;2.63;1.60;;;;;;;20.77;46.96;99865.38;5073704;28;41981;-81
2023/10/05 14:10:50;;;;;;;2.47;1.37;;;;;;;20.61;46.81;99835.41;5073871;28;38993;-81
2023/10/05 14:13:17;;;;;;;1.90;1.23;;;;;;;20.80;47.16;99865.09;5074281;28;40662;-83
2023/10/05 14:15:47;;;;;;;4.73;1.70;;;;;;;20.84;46.88;99865.69;5109324;27;43572;-82
2023/10/05 14:18:17;;;;;;;2.23;1.60;;;;;;;20.89;46.89;99869.69;5126095;27;43329;-81
2023/10/05 14:20:49;;;;;;;4.23;1.70;;;;;;;21.01;46.64;99873.97;5092119;28;39939;-82
2023/10/05 14:23:18;;;;;;;5.10;2.03;;;;;;;21.05;46.69;99859.22;5125492;27;41908;-81
2023/10/05 14:25:46;;;;;;;3.63;1.50;;;;;;;21.31;46.49;99869.50;5092574;28;43006;-81
2023/10/05 14:28:18;;;;;;;2.33;1.37;;;;;;;21.43;46.35;99876.47;5107670;28;41223;-81
2023/10/05 14:30:47;;;;;;;3.43;1.40;;;;;;;21.47;46.62;99864.44;5087985;28;39783;-82
2023/10/05 14:33:17;;;;;;;2.47;1.50;;;;;;;21.65;46.30;99876.22;5089675;28;41194;-83
2023/10/05 14:35:45;;;;;;;3.17;1.70;;;;;;;21.59;45.99;99870.53;5073748;28;41963;-81
2023/10/05 14:38:15;;;;;;;3.17;1.50;;;;;;;21.49;46.39;99867.84;5091527;28;43040;-83
2023/10/05 14:40:44;;;;;;;5.47;1.53;;;;;;;21.27;44.98;99889.63;5090452;28;40019;-81
2023/10/05 14:43:20;;;;;;;2.77;1.53;;;;;;;20.97;45.05;99883.31;5091633;28;42532;-83
2023/10/05 14:45:52;;;;;;;3.57;1.47;;;;;;;20.76;45.31;99864.53;5090805;28;43649;-81
2023/10/05 14:48:21;;;;;;;2.30;1.13;;;;;;;20.64;46.19;99878.22;5107199;28;41335;-82
2023/10/05 14:50:51;;;;;;;2.27;1.13;;;;;;;20.49;46.49;99872.34;5090158;28;39612;-81
2023/10/05 14:53:21;;;;;;;4.80;1.33;;;;;;;20.38;46.95;99864.34;5089654;28;41835;-81
2023/10/05 14:55:49;;;;;;;2.60;1.37;;;;;;;20.18;47.18;99839.13;5107528;28;42012;-81
2023/10/05 14:58:16;;;;;;;4.07;1.50;;;;;;;20.28;47.23;99863.38;5089897;28;42310;-82
2023/10/05 15:00:45;;;;;;;4.50;1.73;;;;;;;20.27;48.07;99861.72;5090170;28;39820;-81
2023/10/05 15:03:15;;;;;;;1.37;1.27;;;;;;;20.13;48.02;99838.69;5089821;28;41366;-81
2023/10/05 15:05:43;;;;;;;4.83;1.90;;;;;;;20.19;48.03;99859.66;5090572;28;42703;-82
2023/10/05 15:08:11;;;;;;;2.50;1.60;;;;;;;20.12;48.56;99860.34;5106703;28;41514;-81
2023/10/05 15:10:40;;;;;;;2.13;1.20;;;;;;;20.05;48.78;99868.06;5090295;28;40161;-81
2023/10/05 15:13:08;;;;;;;2.43;1.20;;;;;;;19.89;49.05;99854.25;5090273;28;42352;-81
2023/10/05 15:15:36;;;;;;;2.80;1.40;;;;;;;19.75;49.17;99849.19;5125506;27;43568;-81
2023/10/05 15:18:04;;;;;;;4.33;1.67;;;;;;;19.71;49.23;99865.56;5090749;28;42210;-81
2023/10/05 15:20:33;;;;;;;2.30;1.43;;;;;;;19.59;49.99;99861.22;5092480;28;39908;-81
2023/10/05 15:23:01;;;;;;;4.73;1.60;;;;;;;19.50;50.21;99867.38;5090346;28;40557;-82
2023/10/05 15:25:30;;;;;;;3.33;1.40;;;;;;;19.33;50.01;99855.28;5122095;27;43871;-80
2023/10/05 15:27:57;;;;;;;4.57;1.67;;;;;;;19.33;50.79;99881.28;5090438;28;41997;-81
2023/10/05 15:30:25;;;;;;;3.53;1.50;;;;;;;19.24;50.43;99882.06;5091956;28;40940;-81
2023/10/05 15:32:53;;;;;;;3.07;1.63;;;;;;;19.14;50.67;99878.44;5124773;27;42747;-81
2023/10/05 15:35:22;;;;;;;3.13;1.80;;;;;;;19.07;50.74;99879.88;5107931;28;42979;-80
2023/10/05 15:37:52;;;;;;;1.60;1.20;;;;;;;19.00;50.96;99879.53;5091926;28;42659;-81
2023/10/05 15:40:20;;;;;;;3.60;1.80;;;;;;;18.93;51.23;99876.47;5098546;28;39069;-79
2023/10/05 15:42:49;;;;;;;2.97;1.60;;;;;;;18.84;51.13;99865.63;5107738;28;42612;-80
2023/10/05 15:45:19;;;;;;;4.60;1.60;;;;;;;18.85;51.82;99875.41;5096742;28;42462;-82
2023/10/05 15:47:48;;;;;;;4.10;1.70;;;;;;;18.65;52.25;99853.72;5111199;27;42066;-82
2023/10/05 15:50:18;;;;;;;4.83;1.90;;;;;;;18.66;52.66;99868.00;5075978;28;39145;-81
2023/10/05 15:52:48;;;;;;;4.40;1.60;;;;;;;18.60;52.58;99871.16;5093022;28;41613;-81
2023/10/05 15:55:19;;;;;;;3.27;1.70;;;;;;;18.59;52.64;99880.16;5093137;28;42383;-81
2023/10/05 15:57:48;;;;;;;4.53;1.80;;;;;;;18.54;52.92;99868.94;5124087;27;42824;-82
2023/10/05 16:00:16;;;;;;;4.13;1.93;;;;;;;18.52;53.14;99871.72;5093308;28;40700;-80
2023/10/05 16:02:45;;;;;;;4.50;2.07;;;;;;;18.46;53.39;99869.50;5094112;28;42381;-82
2023/10/05 16:05:14;;;;;;;4.93;2.17;;;;;;;18.43;53.34;99867.06;5076011;28;41883;-81
2023/10/05 16:07:43;;;;;;;3.07;1.90;;;;;;;18.40;53.57;99863.78;5092483;28;41714;-81
2023/10/05 16:10:11;;;;;;;4.50;1.90;;;;;;;18.38;53.36;99866.59;5110267;28;39266;-81
2023/10/05 16:12:40;;;;;;;4.07;1.73;;;;;;;18.31;53.66;99860.84;5094322;28;41782;-80
2023/10/05 16:15:09;;;;;;;2.93;1.80;;;;;;;18.25;54.13;99847.94;5095061;28;42816;-80
2023/10/05 16:17:36;;;;;;;3.43;2.00;;;;;;;18.32;54.16;99867.06;5076748;28;41115;-81
2023/10/05 16:20:06;;;;;;;5.83;1.83;;;;;;;18.23;53.85;99857.06;5093855;28;39397;-81
2023/10/05 16:22:36;;;;;;;3.73;1.70;;;;;;;18.29;54.68;99867.31;5093746;28;41737;-82
2023/10/05 16:25:05;;;;;;;5.50;2.03;;;;;;;18.23;54.89;99868.66;5127889;27;43074;-80
2023/10/05 16:27:35;;;;;;;4.63;2.17;;;;;;;18.18;55.05;99869.97;5076455;28;41356;-80